CSW444 LSZH-HEGN
Flight info
| Callsign | CSW444 |
|---|---|
| Flight time | N/A |
| Altitude | 35000 |
| Route | DEGES2Y DEGES Z2 XEBIX L607 ELMEM N606 GIRIS DCT NIVAS DCT PEVAL DCT IPKIS DCT AIOSA DCT LATAN DCT SALUN N705 BOPIX N710 TAKRI M720 FYM M872 BOPOB BOPOB1A |
| Aircraft | A319/M-SDE3/2105 |
Departure
| Time | 2026-04-26 13:14 |
|---|---|
| Airport | Zürich Airport (LSZH) |
Arrival
| Time | N/A |
|---|---|
| Airport | Hurghada International Airport (HEGN) |
| Time | Latitude | Longitude | Altitude | Speed | Heading |
|---|---|---|---|---|---|
| 2026-04-26 12:43 | 47.46083 | 8.55244 | 1387 ft | 0 kts | 7° |
| 2026-04-26 13:02 | 47.46072 | 8.55242 | 1386 ft | 2 kts | 6° |
| 2026-04-26 13:02 | 47.46057 | 8.55240 | 1386 ft | 2 kts | 7° |
| 2026-04-26 13:02 | 47.46042 | 8.55237 | 1386 ft | 2 kts | 7° |
| 2026-04-26 13:03 | 47.46027 | 8.55234 | 1386 ft | 2 kts | 7° |
| 2026-04-26 13:03 | 47.46012 | 8.55232 | 1386 ft | 2 kts | 6° |
| 2026-04-26 13:03 | 47.45998 | 8.55224 | 1386 ft | 2 kts | 41° |
| 2026-04-26 13:03 | 47.45989 | 8.55207 | 1386 ft | 2 kts | 71° |
| 2026-04-26 13:04 | 47.45987 | 8.55191 | 1385 ft | 0 kts | 93° |
| 2026-04-26 13:04 | 47.45988 | 8.55180 | 1385 ft | 0 kts | 97° |
| 2026-04-26 13:06 | 47.45988 | 8.55183 | 1385 ft | 1 kts | 96° |
| 2026-04-26 13:06 | 47.45986 | 8.55215 | 1386 ft | 4 kts | 96° |
| 2026-04-26 13:07 | 47.45981 | 8.55284 | 1387 ft | 8 kts | 96° |
| 2026-04-26 13:07 | 47.45973 | 8.55392 | 1389 ft | 12 kts | 96° |
| 2026-04-26 13:07 | 47.45963 | 8.55544 | 1390 ft | 16 kts | 96° |
| 2026-04-26 13:07 | 47.45950 | 8.55727 | 1393 ft | 19 kts | 96° |
| 2026-04-26 13:08 | 47.45936 | 8.55916 | 1397 ft | 17 kts | 96° |
| 2026-04-26 13:08 | 47.45924 | 8.56087 | 1399 ft | 17 kts | 96° |
| 2026-04-26 13:08 | 47.45912 | 8.56267 | 1403 ft | 17 kts | 96° |
| 2026-04-26 13:08 | 47.45885 | 8.56433 | 1406 ft | 15 kts | 131° |
| 2026-04-26 13:09 | 47.45810 | 8.56537 | 1408 ft | 14 kts | 128° |
| 2026-04-26 13:09 | 47.45792 | 8.56674 | 1410 ft | 13 kts | 96° |
| 2026-04-26 13:09 | 47.45781 | 8.56820 | 1412 ft | 14 kts | 97° |
| 2026-04-26 13:09 | 47.45771 | 8.56957 | 1414 ft | 7 kts | 96° |
| 2026-04-26 13:10 | 47.45754 | 8.57018 | 1415 ft | 5 kts | 139° |
| 2026-04-26 13:10 | 47.45739 | 8.57031 | 1416 ft | 0 kts | 160° |
| 2026-04-26 13:11 | 47.45732 | 8.57034 | 1416 ft | 2 kts | 165° |
| 2026-04-26 13:11 | 47.45703 | 8.57035 | 1417 ft | 5 kts | 185° |
| 2026-04-26 13:11 | 47.45666 | 8.56998 | 1417 ft | 7 kts | 249° |
| 2026-04-26 13:12 | 47.45670 | 8.56909 | 1415 ft | 10 kts | 277° |
| 2026-04-26 13:12 | 47.45672 | 8.56884 | 1415 ft | 0 kts | 276° |
| 2026-04-26 13:12 | 47.45673 | 8.56872 | 1415 ft | 5 kts | 276° |
| 2026-04-26 13:13 | 47.45697 | 8.56539 | 1410 ft | 66 kts | 276° |
| 2026-04-26 13:13 | 47.45767 | 8.55546 | 1393 ft | 126 kts | 276° |
| 2026-04-26 13:13 | 47.45880 | 8.54033 | 1428 ft | 166 kts | 278° |
| 2026-04-26 13:13 | 47.46031 | 8.52339 | 1863 ft | 168 kts | 279° |
| 2026-04-26 13:14 | 47.46160 | 8.50576 | 2274 ft | 178 kts | 277° |
| 2026-04-26 13:14 | 47.46263 | 8.48710 | 2660 ft | 190 kts | 272° |
| 2026-04-26 13:14 | 47.45914 | 8.46830 | 3106 ft | 198 kts | 233° |
| 2026-04-26 13:14 | 47.44835 | 8.45586 | 3602 ft | 200 kts | 209° |
| 2026-04-26 13:15 | 47.43684 | 8.44393 | 4067 ft | 206 kts | 231° |
| 2026-04-26 13:15 | 47.43089 | 8.42524 | 4547 ft | 208 kts | 258° |
| 2026-04-26 13:15 | 47.42816 | 8.40362 | 4966 ft | 220 kts | 262° |
| 2026-04-26 13:15 | 47.42551 | 8.38080 | 5364 ft | 234 kts | 261° |
| 2026-04-26 13:16 | 47.42206 | 8.35627 | 5724 ft | 252 kts | 258° |
| 2026-04-26 13:16 | 47.41766 | 8.33055 | 6077 ft | 270 kts | 250° |
| 2026-04-26 13:16 | 47.40675 | 8.30737 | 6466 ft | 284 kts | 215° |
| 2026-04-26 13:16 | 47.38907 | 8.29579 | 7160 ft | 284 kts | 188° |
| 2026-04-26 13:17 | 47.35283 | 8.31269 | 8593 ft | 282 kts | 130° |
| 2026-04-26 13:17 | 47.34334 | 8.33710 | 9255 ft | 283 kts | 103° |
| 2026-04-26 13:18 | 47.34595 | 8.39467 | 10519 ft | 290 kts | 79° |
| 2026-04-26 13:18 | 47.34949 | 8.42421 | 11137 ft | 294 kts | 79° |
| 2026-04-26 13:18 | 47.35636 | 8.48420 | 12357 ft | 302 kts | 79° |
| 2026-04-26 13:19 | 47.35943 | 8.51170 | 12666 ft | 314 kts | 80° |
| 2026-04-26 13:19 | 47.36290 | 8.54310 | 12931 ft | 328 kts | 80° |
| 2026-04-26 13:19 | 47.36658 | 8.57662 | 13223 ft | 342 kts | 80° |
| 2026-04-26 13:19 | 47.37042 | 8.61188 | 13737 ft | 347 kts | 80° |
| 2026-04-26 13:20 | 47.37423 | 8.64713 | 14330 ft | 350 kts | 80° |
| 2026-04-26 13:20 | 47.37806 | 8.68269 | 14897 ft | 354 kts | 81° |
| 2026-04-26 13:20 | 47.38198 | 8.71921 | 15450 ft | 357 kts | 81° |
| 2026-04-26 13:20 | 47.38587 | 8.75558 | 15986 ft | 361 kts | 80° |
| 2026-04-26 13:21 | 47.38976 | 8.79213 | 16508 ft | 364 kts | 80° |
| 2026-04-26 13:21 | 47.39240 | 8.81691 | 16854 ft | 367 kts | 80° |
| 2026-04-26 13:21 | 47.39762 | 8.86617 | 17515 ft | 371 kts | 80° |
| 2026-04-26 13:21 | 47.40163 | 8.90410 | 17985 ft | 375 kts | 80° |
| 2026-04-26 13:22 | 47.40568 | 8.94241 | 18476 ft | 378 kts | 80° |
| 2026-04-26 13:22 | 47.40973 | 8.98082 | 18938 ft | 381 kts | 80° |
| 2026-04-26 13:22 | 47.41386 | 9.02029 | 19440 ft | 383 kts | 80° |
| 2026-04-26 13:22 | 47.41795 | 9.05954 | 19906 ft | 386 kts | 80° |
| 2026-04-26 13:23 | 47.42202 | 9.09860 | 20364 ft | 389 kts | 81° |
| 2026-04-26 13:23 | 47.42616 | 9.13861 | 20819 ft | 392 kts | 81° |
| 2026-04-26 13:23 | 47.43024 | 9.17825 | 21277 ft | 395 kts | 81° |
| 2026-04-26 13:23 | 47.43438 | 9.21851 | 21714 ft | 398 kts | 81° |
| 2026-04-26 13:24 | 47.43852 | 9.25903 | 22154 ft | 401 kts | 81° |
| 2026-04-26 13:24 | 47.44269 | 9.29997 | 22540 ft | 405 kts | 81° |
| 2026-04-26 13:24 | 47.44690 | 9.34147 | 22710 ft | 414 kts | 81° |
| 2026-04-26 13:24 | 47.45118 | 9.38372 | 22898 ft | 422 kts | 81° |
| 2026-04-26 13:25 | 47.45553 | 9.42701 | 23052 ft | 430 kts | 81° |
| 2026-04-26 13:25 | 47.45997 | 9.47131 | 23207 ft | 438 kts | 81° |
| 2026-04-26 13:25 | 47.46442 | 9.51583 | 23399 ft | 444 kts | 81° |
| 2026-04-26 13:25 | 47.46856 | 9.56075 | 23705 ft | 447 kts | 83° |
| 2026-04-26 13:26 | 47.47065 | 9.60674 | 24041 ft | 449 kts | 88° |
| 2026-04-26 13:26 | 47.47025 | 9.65314 | 24374 ft | 451 kts | 94° |
| 2026-04-26 13:26 | 47.46800 | 9.69959 | 24687 ft | 453 kts | 95° |
| 2026-04-26 13:26 | 47.46537 | 9.74575 | 24997 ft | 455 kts | 95° |
| 2026-04-26 13:27 | 47.46267 | 9.79201 | 25293 ft | 457 kts | 95° |
| 2026-04-26 13:27 | 47.45995 | 9.83890 | 25578 ft | 459 kts | 95° |
| 2026-04-26 13:27 | 47.45727 | 9.88575 | 25880 ft | 461 kts | 95° |
| 2026-04-26 13:27 | 47.45459 | 9.93279 | 26163 ft | 463 kts | 95° |
| 2026-04-26 13:28 | 47.45188 | 9.98036 | 26440 ft | 465 kts | 95° |
| 2026-04-26 13:28 | 47.44916 | 10.02772 | 26691 ft | 467 kts | 95° |
| 2026-04-26 13:28 | 47.44640 | 10.07553 | 26949 ft | 469 kts | 95° |
| 2026-04-26 13:28 | 47.44362 | 10.12316 | 27220 ft | 470 kts | 95° |
| 2026-04-26 13:29 | 47.44041 | 10.17105 | 27475 ft | 472 kts | 97° |
| 2026-04-26 13:29 | 47.43736 | 10.20264 | 27628 ft | 473 kts | 99° |
| 2026-04-26 13:29 | 47.42925 | 10.26628 | 28003 ft | 474 kts | 101° |
| 2026-04-26 13:29 | 47.42277 | 10.31370 | 28356 ft | 473 kts | 101° |
| 2026-04-26 13:30 | 47.41620 | 10.36164 | 28703 ft | 472 kts | 101° |
| 2026-04-26 13:30 | 47.40951 | 10.40859 | 29009 ft | 472 kts | 105° |
| 2026-04-26 13:30 | 47.39722 | 10.45322 | 29227 ft | 471 kts | 121° |
| 2026-04-26 13:30 | 47.37752 | 10.49100 | 29520 ft | 466 kts | 137° |
| 2026-04-26 13:31 | 47.35208 | 10.51998 | 29830 ft | 461 kts | 151° |
| 2026-04-26 13:31 | 47.32409 | 10.54227 | 30181 ft | 458 kts | 154° |
| 2026-04-26 13:31 | 47.29604 | 10.56360 | 30457 ft | 458 kts | 154° |
| 2026-04-26 13:31 | 47.26787 | 10.58526 | 30718 ft | 459 kts | 154° |
| 2026-04-26 13:32 | 47.23948 | 10.60742 | 31009 ft | 458 kts | 154° |
| 2026-04-26 13:32 | 47.21173 | 10.62930 | 31298 ft | 458 kts | 153° |
| 2026-04-26 13:32 | 47.18368 | 10.65075 | 31574 ft | 457 kts | 156° |
| 2026-04-26 13:32 | 47.15478 | 10.67009 | 31844 ft | 455 kts | 160° |
| 2026-04-26 13:33 | 47.12521 | 10.68701 | 32115 ft | 453 kts | 162° |
| 2026-04-26 13:33 | 47.09583 | 10.70302 | 32363 ft | 453 kts | 162° |
| 2026-04-26 13:33 | 47.06646 | 10.71902 | 32602 ft | 453 kts | 162° |
| 2026-04-26 13:33 | 47.03709 | 10.73507 | 32835 ft | 453 kts | 162° |
| 2026-04-26 13:34 | 47.00737 | 10.75146 | 33079 ft | 452 kts | 162° |
| 2026-04-26 13:34 | 46.97836 | 10.76784 | 33313 ft | 452 kts | 161° |
| 2026-04-26 13:34 | 46.94927 | 10.78436 | 33527 ft | 452 kts | 161° |
| 2026-04-26 13:34 | 46.92980 | 10.79540 | 33653 ft | 452 kts | 161° |
| 2026-04-26 13:35 | 46.89055 | 10.81755 | 33878 ft | 452 kts | 161° |
| 2026-04-26 13:35 | 46.86129 | 10.83402 | 34034 ft | 453 kts | 161° |
| 2026-04-26 13:35 | 46.83225 | 10.85216 | 34160 ft | 456 kts | 157° |
| 2026-04-26 13:35 | 46.80416 | 10.87366 | 34279 ft | 458 kts | 152° |
| 2026-04-26 13:36 | 46.77746 | 10.89831 | 34397 ft | 460 kts | 147° |
| 2026-04-26 13:36 | 46.75191 | 10.92639 | 34518 ft | 462 kts | 142° |
| 2026-04-26 13:36 | 46.72793 | 10.95753 | 34636 ft | 464 kts | 137° |
| 2026-04-26 13:36 | 46.70566 | 10.99153 | 34756 ft | 465 kts | 133° |
| 2026-04-26 13:37 | 46.68416 | 11.02677 | 34863 ft | 465 kts | 133° |
| 2026-04-26 13:37 | 46.64138 | 11.09730 | 35051 ft | 466 kts | 133° |
| 2026-04-26 13:38 | 46.59869 | 11.16720 | 35216 ft | 467 kts | 133° |
| 2026-04-26 13:38 | 46.55528 | 11.23787 | 35217 ft | 468 kts | 133° |
| 2026-04-26 13:39 | 46.51203 | 11.30800 | 35170 ft | 468 kts | 133° |
| 2026-04-26 13:39 | 46.46876 | 11.37798 | 35162 ft | 468 kts | 133° |
| 2026-04-26 13:40 | 46.42540 | 11.44795 | 35184 ft | 468 kts | 133° |
| 2026-04-26 13:40 | 46.38203 | 11.51774 | 35215 ft | 468 kts | 133° |
| 2026-04-26 13:41 | 46.33875 | 11.58722 | 35226 ft | 468 kts | 133° |
| 2026-04-26 13:41 | 46.29526 | 11.65684 | 35220 ft | 467 kts | 134° |
| 2026-04-26 13:42 | 46.25164 | 11.72649 | 35218 ft | 467 kts | 134° |
| 2026-04-26 13:42 | 46.20835 | 11.79543 | 35218 ft | 467 kts | 133° |
| 2026-04-26 13:43 | 46.16458 | 11.86496 | 35213 ft | 467 kts | 133° |
| 2026-04-26 13:43 | 46.12116 | 11.93375 | 35195 ft | 468 kts | 133° |
| 2026-04-26 13:44 | 46.07744 | 12.00288 | 35178 ft | 467 kts | 133° |
| 2026-04-26 13:44 | 46.03644 | 12.06752 | 35183 ft | 467 kts | 133° |
| 2026-04-26 13:45 | 45.99247 | 12.13665 | 35162 ft | 467 kts | 133° |
| 2026-04-26 13:45 | 45.94871 | 12.20528 | 35146 ft | 466 kts | 133° |
| 2026-04-26 13:46 | 45.90500 | 12.27366 | 35123 ft | 467 kts | 133° |
| 2026-04-26 13:46 | 45.86193 | 12.34403 | 35111 ft | 468 kts | 131° |
| 2026-04-26 13:47 | 45.81974 | 12.41487 | 35102 ft | 468 kts | 131° |
| 2026-04-26 13:47 | 45.77736 | 12.48554 | 35095 ft | 468 kts | 131° |
| 2026-04-26 13:48 | 45.73497 | 12.55583 | 35092 ft | 467 kts | 131° |
| 2026-04-26 13:48 | 45.69239 | 12.62616 | 35090 ft | 467 kts | 131° |
| 2026-04-26 13:49 | 45.64983 | 12.69629 | 35088 ft | 466 kts | 132° |
| 2026-04-26 13:49 | 45.60743 | 12.76598 | 35088 ft | 466 kts | 132° |
| 2026-04-26 13:50 | 45.56512 | 12.83535 | 35085 ft | 467 kts | 132° |
| 2026-04-26 13:50 | 45.52242 | 12.90516 | 35085 ft | 467 kts | 132° |
| 2026-04-26 13:51 | 45.47969 | 12.97484 | 35088 ft | 467 kts | 132° |
| 2026-04-26 13:51 | 45.43681 | 13.04460 | 35089 ft | 467 kts | 132° |
| 2026-04-26 13:52 | 45.39440 | 13.11339 | 35085 ft | 466 kts | 131° |
| 2026-04-26 13:52 | 45.35154 | 13.18275 | 35083 ft | 466 kts | 131° |
| 2026-04-26 13:53 | 45.30730 | 13.24922 | 35085 ft | 466 kts | 137° |
| 2026-04-26 13:53 | 45.25800 | 13.30874 | 35088 ft | 465 kts | 142° |
| 2026-04-26 13:54 | 45.20746 | 13.36605 | 35086 ft | 466 kts | 142° |
| 2026-04-26 13:54 | 45.15682 | 13.42341 | 35081 ft | 466 kts | 142° |
| 2026-04-26 13:55 | 45.08976 | 13.49926 | 35083 ft | 466 kts | 142° |
| 2026-04-26 13:56 | 45.00517 | 13.59461 | 35119 ft | 466 kts | 142° |
| 2026-04-26 13:56 | 44.95472 | 13.65130 | 35096 ft | 466 kts | 142° |
| 2026-04-26 13:57 | 44.90380 | 13.70840 | 35088 ft | 467 kts | 142° |
| 2026-04-26 13:57 | 44.85297 | 13.76527 | 35091 ft | 467 kts | 142° |
| 2026-04-26 13:58 | 44.80230 | 13.82182 | 35092 ft | 466 kts | 142° |
| 2026-04-26 13:58 | 44.75153 | 13.87837 | 35094 ft | 466 kts | 142° |
| 2026-04-26 13:59 | 44.70065 | 13.93490 | 35091 ft | 466 kts | 142° |
| 2026-04-26 13:59 | 44.65018 | 13.99085 | 35091 ft | 466 kts | 142° |
| 2026-04-26 14:00 | 44.54831 | 14.10339 | 35092 ft | 468 kts | 142° |
| 2026-04-26 14:01 | 44.49707 | 14.15979 | 35095 ft | 468 kts | 142° |
| 2026-04-26 14:01 | 44.44579 | 14.21610 | 35095 ft | 468 kts | 142° |
| 2026-04-26 14:02 | 44.39462 | 14.27216 | 35096 ft | 468 kts | 142° |
| 2026-04-26 14:02 | 44.34487 | 14.33074 | 35098 ft | 467 kts | 137° |
| 2026-04-26 14:03 | 44.29726 | 14.39151 | 35102 ft | 468 kts | 137° |
| 2026-04-26 14:03 | 44.24927 | 14.45262 | 35095 ft | 468 kts | 137° |
| 2026-04-26 14:04 | 44.20122 | 14.51363 | 35096 ft | 469 kts | 137° |
| 2026-04-26 14:04 | 44.15303 | 14.57464 | 35091 ft | 469 kts | 137° |
| 2026-04-26 14:05 | 44.10478 | 14.63557 | 35092 ft | 469 kts | 137° |
| 2026-04-26 14:05 | 44.05631 | 14.69666 | 35095 ft | 469 kts | 138° |
| 2026-04-26 14:06 | 44.00800 | 14.75740 | 35100 ft | 469 kts | 138° |
| 2026-04-26 14:06 | 43.95978 | 14.81789 | 35097 ft | 469 kts | 138° |
| 2026-04-26 14:07 | 43.91130 | 14.87854 | 35099 ft | 469 kts | 138° |
| 2026-04-26 14:07 | 43.86274 | 14.93919 | 35097 ft | 470 kts | 138° |
| 2026-04-26 14:08 | 43.81440 | 14.99942 | 35099 ft | 471 kts | 138° |
| 2026-04-26 14:08 | 43.76564 | 15.06003 | 35100 ft | 471 kts | 138° |
| 2026-04-26 14:09 | 43.71671 | 15.12070 | 35099 ft | 470 kts | 138° |
| 2026-04-26 14:09 | 43.66834 | 15.18055 | 35096 ft | 469 kts | 138° |
| 2026-04-26 14:10 | 43.61982 | 15.24044 | 35093 ft | 470 kts | 138° |
| 2026-04-26 14:10 | 43.57101 | 15.30057 | 35093 ft | 470 kts | 138° |
| 2026-04-26 14:11 | 43.49780 | 15.39048 | 35090 ft | 470 kts | 138° |
| 2026-04-26 14:11 | 43.44908 | 15.45015 | 35088 ft | 470 kts | 138° |
| 2026-04-26 14:12 | 43.40032 | 15.50974 | 35087 ft | 469 kts | 138° |
| 2026-04-26 14:12 | 43.35149 | 15.56926 | 35084 ft | 470 kts | 138° |
| 2026-04-26 14:13 | 43.27851 | 15.65799 | 35082 ft | 469 kts | 139° |
| 2026-04-26 14:14 | 43.22942 | 15.71751 | 35083 ft | 470 kts | 139° |
| 2026-04-26 14:14 | 43.18077 | 15.77637 | 35085 ft | 470 kts | 139° |
| 2026-04-26 14:15 | 43.13168 | 15.83562 | 35082 ft | 470 kts | 139° |
| 2026-04-26 14:15 | 43.08253 | 15.89481 | 35081 ft | 470 kts | 139° |
| 2026-04-26 14:16 | 43.03340 | 15.95386 | 35082 ft | 470 kts | 139° |
| 2026-04-26 14:16 | 42.98407 | 16.01301 | 35079 ft | 470 kts | 139° |
| 2026-04-26 14:17 | 42.93513 | 16.07157 | 35070 ft | 470 kts | 139° |
| 2026-04-26 14:17 | 42.88578 | 16.13049 | 35081 ft | 470 kts | 139° |
| 2026-04-26 14:18 | 42.83658 | 16.18910 | 35078 ft | 470 kts | 139° |
| 2026-04-26 14:18 | 42.78734 | 16.24762 | 35078 ft | 470 kts | 139° |
| 2026-04-26 14:19 | 42.73813 | 16.30596 | 35079 ft | 469 kts | 139° |
| 2026-04-26 14:19 | 42.68918 | 16.36389 | 35082 ft | 469 kts | 139° |
| 2026-04-26 14:20 | 42.63979 | 16.42221 | 35078 ft | 469 kts | 139° |
| 2026-04-26 14:20 | 42.59061 | 16.48015 | 35082 ft | 468 kts | 139° |
| 2026-04-26 14:21 | 42.54149 | 16.53789 | 35082 ft | 468 kts | 139° |
| 2026-04-26 14:21 | 42.49236 | 16.59554 | 35082 ft | 469 kts | 139° |
| 2026-04-26 14:22 | 42.44278 | 16.65356 | 35085 ft | 469 kts | 140° |
| 2026-04-26 14:22 | 42.39352 | 16.71112 | 35082 ft | 469 kts | 140° |
| 2026-04-26 14:23 | 42.34432 | 16.76846 | 35083 ft | 468 kts | 140° |
| 2026-04-26 14:23 | 42.29507 | 16.82572 | 35082 ft | 468 kts | 140° |
| 2026-04-26 14:24 | 42.24550 | 16.88324 | 35082 ft | 468 kts | 140° |
| 2026-04-26 14:24 | 42.19626 | 16.94026 | 35083 ft | 467 kts | 140° |
| 2026-04-26 14:25 | 42.14693 | 16.99726 | 35081 ft | 467 kts | 140° |
| 2026-04-26 14:25 | 42.09786 | 17.05385 | 35082 ft | 468 kts | 140° |
| 2026-04-26 14:26 | 42.04844 | 17.11069 | 35082 ft | 468 kts | 140° |
| 2026-04-26 14:26 | 41.99877 | 17.16771 | 35081 ft | 468 kts | 140° |
| 2026-04-26 14:27 | 41.94857 | 17.22319 | 35082 ft | 467 kts | 144° |
| 2026-04-26 14:27 | 41.89453 | 17.27119 | 35083 ft | 466 kts | 151° |
| 2026-04-26 14:28 | 41.83735 | 17.31175 | 35084 ft | 465 kts | 154° |
| 2026-04-26 14:28 | 41.78007 | 17.35125 | 35085 ft | 465 kts | 154° |
| 2026-04-26 14:29 | 41.72250 | 17.39097 | 35084 ft | 464 kts | 154° |
| 2026-04-26 14:29 | 41.66543 | 17.43030 | 35085 ft | 464 kts | 154° |
| 2026-04-26 14:30 | 41.60781 | 17.46995 | 35086 ft | 464 kts | 154° |
| 2026-04-26 14:30 | 41.55052 | 17.50930 | 35086 ft | 464 kts | 154° |
| 2026-04-26 14:31 | 41.49318 | 17.54859 | 35084 ft | 464 kts | 154° |
| 2026-04-26 14:31 | 41.43584 | 17.58782 | 35086 ft | 464 kts | 154° |
| 2026-04-26 14:32 | 41.37852 | 17.62695 | 35086 ft | 464 kts | 154° |
| 2026-04-26 14:32 | 41.32109 | 17.66608 | 35085 ft | 463 kts | 154° |
| 2026-04-26 14:33 | 41.26375 | 17.70507 | 35087 ft | 463 kts | 154° |
| 2026-04-26 14:33 | 41.20666 | 17.74381 | 35087 ft | 463 kts | 154° |
| 2026-04-26 14:34 | 41.14910 | 17.78280 | 35085 ft | 463 kts | 154° |
| 2026-04-26 14:34 | 41.09190 | 17.82146 | 35083 ft | 463 kts | 154° |
| 2026-04-26 14:35 | 41.03436 | 17.86029 | 35084 ft | 463 kts | 154° |
| 2026-04-26 14:35 | 40.97731 | 17.89870 | 35085 ft | 463 kts | 154° |
| 2026-04-26 14:36 | 40.91988 | 17.93730 | 35086 ft | 462 kts | 154° |
| 2026-04-26 14:36 | 40.86256 | 17.97575 | 35083 ft | 462 kts | 155° |
| 2026-04-26 14:37 | 40.80512 | 18.01419 | 35083 ft | 462 kts | 155° |
| 2026-04-26 14:37 | 40.74763 | 18.05260 | 35083 ft | 462 kts | 155° |
| 2026-04-26 14:38 | 40.69030 | 18.09082 | 35083 ft | 462 kts | 155° |
| 2026-04-26 14:38 | 40.63342 | 18.12868 | 35083 ft | 461 kts | 155° |
| 2026-04-26 14:39 | 40.57605 | 18.16680 | 35084 ft | 461 kts | 155° |
| 2026-04-26 14:39 | 40.51873 | 18.20479 | 35082 ft | 461 kts | 155° |
| 2026-04-26 14:40 | 40.46138 | 18.24273 | 35083 ft | 461 kts | 155° |
| 2026-04-26 14:40 | 40.40432 | 18.28040 | 35083 ft | 460 kts | 155° |
| 2026-04-26 14:41 | 40.34710 | 18.31812 | 35085 ft | 460 kts | 155° |
| 2026-04-26 14:41 | 40.28987 | 18.35576 | 35084 ft | 459 kts | 155° |
| 2026-04-26 14:42 | 40.23308 | 18.39305 | 35083 ft | 460 kts | 155° |
| 2026-04-26 14:42 | 40.17574 | 18.43063 | 35084 ft | 459 kts | 155° |
| 2026-04-26 14:43 | 40.11868 | 18.46797 | 35083 ft | 459 kts | 155° |
| 2026-04-26 14:43 | 40.06177 | 18.50512 | 35083 ft | 459 kts | 155° |
| 2026-04-26 14:44 | 40.00461 | 18.54236 | 35083 ft | 458 kts | 155° |
| 2026-04-26 14:44 | 39.94756 | 18.57945 | 35082 ft | 458 kts | 155° |
| 2026-04-26 14:45 | 39.89062 | 18.61641 | 35082 ft | 457 kts | 155° |
| 2026-04-26 14:45 | 39.83372 | 18.65329 | 35083 ft | 457 kts | 156° |
| 2026-04-26 14:46 | 39.77673 | 18.69016 | 35083 ft | 456 kts | 156° |
| 2026-04-26 14:46 | 39.72008 | 18.72672 | 35083 ft | 456 kts | 156° |
| 2026-04-26 14:47 | 39.66310 | 18.76344 | 35084 ft | 455 kts | 156° |
| 2026-04-26 14:47 | 39.60632 | 18.79996 | 35082 ft | 455 kts | 156° |
| 2026-04-26 14:48 | 39.54965 | 18.83634 | 35083 ft | 455 kts | 156° |
| 2026-04-26 14:48 | 39.49316 | 18.87253 | 35082 ft | 454 kts | 156° |
| 2026-04-26 14:49 | 39.43642 | 18.90883 | 35081 ft | 454 kts | 156° |
| 2026-04-26 14:49 | 39.37962 | 18.94508 | 35082 ft | 454 kts | 156° |
| 2026-04-26 14:50 | 39.32376 | 18.98277 | 35083 ft | 455 kts | 152° |
| 2026-04-26 14:50 | 39.27136 | 19.02751 | 35081 ft | 456 kts | 145° |
| 2026-04-26 14:51 | 39.22223 | 19.08006 | 35078 ft | 458 kts | 141° |
| 2026-04-26 14:51 | 39.17445 | 19.13406 | 35078 ft | 458 kts | 141° |
| 2026-04-26 14:52 | 39.12654 | 19.18808 | 35077 ft | 459 kts | 141° |
| 2026-04-26 14:52 | 39.07848 | 19.24209 | 35075 ft | 460 kts | 141° |
| 2026-04-26 14:53 | 39.03057 | 19.29583 | 35074 ft | 459 kts | 141° |
| 2026-04-26 14:53 | 38.98232 | 19.34983 | 35075 ft | 459 kts | 141° |
| 2026-04-26 14:54 | 38.93439 | 19.40337 | 35072 ft | 459 kts | 141° |
| 2026-04-26 14:54 | 38.88628 | 19.45703 | 35072 ft | 459 kts | 141° |
| 2026-04-26 14:55 | 38.83784 | 19.51094 | 35076 ft | 459 kts | 141° |
| 2026-04-26 14:55 | 38.78988 | 19.56422 | 35074 ft | 460 kts | 141° |
| 2026-04-26 14:56 | 38.74150 | 19.61786 | 35076 ft | 460 kts | 141° |
| 2026-04-26 14:56 | 38.69304 | 19.67151 | 35071 ft | 461 kts | 141° |
| 2026-04-26 14:57 | 38.64422 | 19.72546 | 35071 ft | 461 kts | 141° |
| 2026-04-26 14:57 | 38.59575 | 19.77890 | 35073 ft | 461 kts | 141° |
| 2026-04-26 14:58 | 38.54727 | 19.83226 | 35071 ft | 460 kts | 141° |
| 2026-04-26 14:58 | 38.49873 | 19.88558 | 35070 ft | 460 kts | 141° |
| 2026-04-26 14:59 | 38.45028 | 19.93871 | 35070 ft | 461 kts | 141° |
| 2026-04-26 14:59 | 38.40151 | 19.99209 | 35071 ft | 461 kts | 141° |
| 2026-04-26 15:00 | 38.35291 | 20.04520 | 35073 ft | 461 kts | 141° |
| 2026-04-26 15:00 | 38.30428 | 20.09825 | 35073 ft | 462 kts | 141° |
| 2026-04-26 15:01 | 38.25555 | 20.15129 | 35072 ft | 462 kts | 141° |
| 2026-04-26 15:01 | 38.20694 | 20.20409 | 35074 ft | 461 kts | 141° |
| 2026-04-26 15:02 | 38.15798 | 20.25720 | 35074 ft | 462 kts | 141° |
| 2026-04-26 15:02 | 38.10925 | 20.30996 | 35079 ft | 462 kts | 141° |
| 2026-04-26 15:03 | 38.06029 | 20.36289 | 35088 ft | 462 kts | 141° |
| 2026-04-26 15:03 | 38.01148 | 20.41553 | 35092 ft | 462 kts | 141° |
| 2026-04-26 15:04 | 37.96246 | 20.46831 | 35092 ft | 463 kts | 141° |
| 2026-04-26 15:04 | 37.91375 | 20.52066 | 35089 ft | 462 kts | 141° |
| 2026-04-26 15:05 | 37.86442 | 20.57358 | 35089 ft | 463 kts | 141° |
| 2026-04-26 15:05 | 37.81538 | 20.62609 | 35090 ft | 463 kts | 141° |
| 2026-04-26 15:06 | 37.76639 | 20.67847 | 35093 ft | 463 kts | 141° |
| 2026-04-26 15:06 | 37.71730 | 20.73085 | 35097 ft | 463 kts | 141° |
| 2026-04-26 15:07 | 37.64354 | 20.80937 | 35094 ft | 463 kts | 141° |
| 2026-04-26 15:07 | 37.59449 | 20.86146 | 35087 ft | 463 kts | 141° |
| 2026-04-26 15:08 | 37.54520 | 20.91373 | 35083 ft | 464 kts | 141° |
| 2026-04-26 15:08 | 37.49567 | 20.96616 | 35080 ft | 464 kts | 141° |
| 2026-04-26 15:09 | 37.44654 | 21.01808 | 35077 ft | 463 kts | 140° |
| 2026-04-26 15:09 | 37.39738 | 21.06995 | 35079 ft | 462 kts | 141° |
| 2026-04-26 15:10 | 37.35635 | 21.11315 | 35079 ft | 463 kts | 141° |
| 2026-04-26 15:10 | 37.29848 | 21.17397 | 35076 ft | 464 kts | 140° |
| 2026-04-26 15:11 | 37.24909 | 21.22579 | 35076 ft | 465 kts | 140° |
| 2026-04-26 15:11 | 37.19931 | 21.27793 | 35073 ft | 465 kts | 140° |
| 2026-04-26 15:12 | 37.14964 | 21.32986 | 35068 ft | 465 kts | 140° |
| 2026-04-26 15:12 | 37.10014 | 21.38151 | 35068 ft | 464 kts | 140° |
| 2026-04-26 15:13 | 37.05048 | 21.43322 | 35064 ft | 464 kts | 140° |
| 2026-04-26 15:13 | 37.00087 | 21.48483 | 35063 ft | 465 kts | 140° |
| 2026-04-26 15:14 | 36.95113 | 21.53647 | 35063 ft | 465 kts | 140° |
| 2026-04-26 15:14 | 36.90134 | 21.58806 | 35059 ft | 466 kts | 140° |
| 2026-04-26 15:15 | 36.85166 | 21.63945 | 35056 ft | 466 kts | 140° |
| 2026-04-26 15:15 | 36.80173 | 21.69100 | 35052 ft | 467 kts | 140° |
| 2026-04-26 15:16 | 36.75167 | 21.74262 | 35055 ft | 466 kts | 140° |
| 2026-04-26 15:16 | 36.70172 | 21.79399 | 35048 ft | 467 kts | 140° |
| 2026-04-26 15:17 | 36.65995 | 21.83691 | 35054 ft | 467 kts | 140° |
| 2026-04-26 15:17 | 36.60147 | 21.89690 | 35048 ft | 467 kts | 140° |
| 2026-04-26 15:18 | 36.55138 | 21.94817 | 35046 ft | 468 kts | 140° |
| 2026-04-26 15:18 | 36.50113 | 21.99953 | 35053 ft | 468 kts | 140° |
| 2026-04-26 15:19 | 36.45093 | 22.05073 | 35047 ft | 468 kts | 140° |
| 2026-04-26 15:19 | 36.40048 | 22.10210 | 35041 ft | 469 kts | 140° |
| 2026-04-26 15:20 | 36.35019 | 22.15323 | 35053 ft | 468 kts | 140° |
| 2026-04-26 15:20 | 36.29977 | 22.20439 | 35045 ft | 469 kts | 140° |
| 2026-04-26 15:21 | 36.24913 | 22.25569 | 35047 ft | 469 kts | 140° |
| 2026-04-26 15:21 | 36.19868 | 22.30673 | 35045 ft | 470 kts | 140° |
| 2026-04-26 15:22 | 36.14812 | 22.35778 | 35035 ft | 470 kts | 140° |
| 2026-04-26 15:22 | 36.09712 | 22.40918 | 35167 ft | 472 kts | 140° |
| 2026-04-26 15:23 | 36.04637 | 22.46022 | 34951 ft | 471 kts | 139° |
| 2026-04-26 15:23 | 36.02083 | 22.48588 | 35174 ft | 472 kts | 139° |
| 2026-04-26 15:23 | 35.99557 | 22.51124 | 35094 ft | 471 kts | 139° |
| 2026-04-26 15:24 | 35.97013 | 22.53676 | 34962 ft | 471 kts | 139° |
| 2026-04-26 15:24 | 35.94465 | 22.56230 | 35008 ft | 471 kts | 139° |
| 2026-04-26 15:24 | 35.89369 | 22.61332 | 35042 ft | 473 kts | 139° |
| 2026-04-26 15:25 | 35.85113 | 22.65586 | 35053 ft | 473 kts | 140° |
| 2026-04-26 15:25 | 35.79102 | 22.71582 | 35040 ft | 474 kts | 140° |
| 2026-04-26 15:26 | 35.73992 | 22.76672 | 35045 ft | 475 kts | 140° |
| 2026-04-26 15:26 | 35.68873 | 22.81760 | 35044 ft | 474 kts | 140° |
| 2026-04-26 15:27 | 35.63734 | 22.86859 | 35046 ft | 474 kts | 140° |
| 2026-04-26 15:27 | 35.58579 | 22.91966 | 35039 ft | 475 kts | 139° |
| 2026-04-26 15:28 | 35.53451 | 22.97039 | 35047 ft | 475 kts | 139° |
| 2026-04-26 15:28 | 35.48293 | 23.02133 | 35047 ft | 476 kts | 139° |
| 2026-04-26 15:29 | 35.43131 | 23.07222 | 35049 ft | 476 kts | 139° |
| 2026-04-26 15:30 | 35.32796 | 23.17383 | 35033 ft | 477 kts | 139° |
| 2026-04-26 15:30 | 35.27634 | 23.22444 | 35027 ft | 477 kts | 139° |
| 2026-04-26 15:31 | 35.19849 | 23.30064 | 35029 ft | 478 kts | 139° |
| 2026-04-26 15:32 | 35.12920 | 23.36829 | 35023 ft | 478 kts | 139° |
| 2026-04-26 15:32 | 35.06875 | 23.42718 | 35026 ft | 479 kts | 139° |
| 2026-04-26 15:33 | 35.01677 | 23.47775 | 35022 ft | 478 kts | 139° |
| 2026-04-26 15:33 | 34.96437 | 23.52861 | 35022 ft | 479 kts | 139° |
| 2026-04-26 15:34 | 34.91238 | 23.57898 | 35016 ft | 480 kts | 139° |
| 2026-04-26 15:34 | 34.85999 | 23.62969 | 35015 ft | 480 kts | 139° |
| 2026-04-26 15:35 | 34.80785 | 23.68005 | 35015 ft | 482 kts | 140° |
| 2026-04-26 15:35 | 34.75545 | 23.73060 | 35019 ft | 481 kts | 140° |
| 2026-04-26 15:36 | 34.70294 | 23.78116 | 35014 ft | 482 kts | 140° |
| 2026-04-26 15:36 | 34.65042 | 23.83164 | 35011 ft | 483 kts | 139° |
| 2026-04-26 15:37 | 34.59756 | 23.88234 | 35008 ft | 484 kts | 139° |
| 2026-04-26 15:37 | 34.54476 | 23.93295 | 35009 ft | 484 kts | 140° |
| 2026-04-26 15:38 | 34.49210 | 23.98333 | 35010 ft | 484 kts | 140° |
| 2026-04-26 15:38 | 34.43902 | 24.03399 | 35008 ft | 485 kts | 140° |
| 2026-04-26 15:39 | 34.38633 | 24.08421 | 35008 ft | 485 kts | 140° |
| 2026-04-26 15:39 | 34.34197 | 24.12645 | 35002 ft | 486 kts | 140° |
| 2026-04-26 15:40 | 34.27994 | 24.18540 | 35003 ft | 487 kts | 140° |
| 2026-04-26 15:40 | 34.22662 | 24.23595 | 35005 ft | 486 kts | 140° |
| 2026-04-26 15:41 | 34.17341 | 24.28634 | 35011 ft | 486 kts | 140° |
| 2026-04-26 15:41 | 34.12044 | 24.33641 | 35004 ft | 487 kts | 140° |
| 2026-04-26 15:42 | 34.06709 | 24.38677 | 34996 ft | 488 kts | 140° |
| 2026-04-26 15:42 | 34.01365 | 24.43715 | 35007 ft | 489 kts | 140° |
| 2026-04-26 15:43 | 33.96227 | 24.49038 | 35008 ft | 488 kts | 136° |
| 2026-04-26 15:44 | 33.88611 | 24.57250 | 35004 ft | 490 kts | 136° |
| 2026-04-26 15:44 | 33.80969 | 24.65459 | 34997 ft | 492 kts | 137° |
| 2026-04-26 15:45 | 33.73307 | 24.73663 | 35007 ft | 492 kts | 136° |
| 2026-04-26 15:46 | 33.65632 | 24.81864 | 34997 ft | 493 kts | 137° |
| 2026-04-26 15:46 | 33.61386 | 24.86390 | 35002 ft | 494 kts | 137° |
| 2026-04-26 15:47 | 33.52803 | 24.95516 | 35001 ft | 496 kts | 137° |
| 2026-04-26 15:48 | 33.47643 | 25.00994 | 34997 ft | 496 kts | 137° |
| 2026-04-26 15:48 | 33.42493 | 25.06451 | 35008 ft | 497 kts | 137° |
| 2026-04-26 15:49 | 33.37311 | 25.11934 | 34981 ft | 499 kts | 137° |
| 2026-04-26 15:49 | 33.32103 | 25.17432 | 34983 ft | 499 kts | 137° |
| 2026-04-26 15:50 | 33.26902 | 25.22919 | 35004 ft | 500 kts | 138° |
| 2026-04-26 15:50 | 33.21681 | 25.28414 | 34984 ft | 499 kts | 138° |
| 2026-04-26 15:51 | 33.16481 | 25.33879 | 34995 ft | 500 kts | 138° |
| 2026-04-26 15:51 | 33.11261 | 25.39355 | 34992 ft | 501 kts | 138° |
| 2026-04-26 15:52 | 33.06040 | 25.44823 | 34986 ft | 501 kts | 139° |
| 2026-04-26 15:52 | 33.00793 | 25.50310 | 35004 ft | 502 kts | 139° |
| 2026-04-26 15:53 | 32.95520 | 25.55812 | 34999 ft | 502 kts | 139° |
| 2026-04-26 15:53 | 32.90273 | 25.61283 | 34986 ft | 503 kts | 139° |
| 2026-04-26 15:54 | 32.85018 | 25.66751 | 34994 ft | 504 kts | 139° |
| 2026-04-26 15:54 | 32.79756 | 25.72216 | 34997 ft | 504 kts | 140° |
| 2026-04-26 15:55 | 32.74478 | 25.77695 | 34991 ft | 504 kts | 140° |
| 2026-04-26 15:55 | 32.69204 | 25.83152 | 34998 ft | 505 kts | 140° |
| 2026-04-26 15:56 | 32.63906 | 25.88628 | 34994 ft | 505 kts | 140° |
| 2026-04-26 15:56 | 32.58605 | 25.94100 | 34987 ft | 505 kts | 140° |
| 2026-04-26 15:57 | 32.53292 | 25.99573 | 34993 ft | 506 kts | 140° |
| 2026-04-26 15:57 | 32.47975 | 26.05043 | 34990 ft | 506 kts | 140° |
| 2026-04-26 15:58 | 32.42674 | 26.10488 | 34991 ft | 507 kts | 140° |
| 2026-04-26 15:58 | 32.37323 | 26.15976 | 34993 ft | 507 kts | 141° |
| 2026-04-26 15:59 | 32.31981 | 26.21443 | 34992 ft | 507 kts | 141° |
| 2026-04-26 15:59 | 32.26682 | 26.26861 | 34988 ft | 507 kts | 141° |
| 2026-04-26 16:00 | 32.21351 | 26.32298 | 34992 ft | 507 kts | 141° |
| 2026-04-26 16:00 | 32.15980 | 26.37770 | 34992 ft | 508 kts | 141° |
| 2026-04-26 16:01 | 32.10639 | 26.43203 | 34989 ft | 508 kts | 141° |
| 2026-04-26 16:01 | 32.05305 | 26.48618 | 34991 ft | 509 kts | 141° |
| 2026-04-26 16:02 | 31.99943 | 26.54056 | 34990 ft | 508 kts | 141° |
| 2026-04-26 16:02 | 31.94587 | 26.59480 | 34945 ft | 508 kts | 142° |
| 2026-04-26 16:03 | 31.89223 | 26.64899 | 34970 ft | 508 kts | 142° |
| 2026-04-26 16:03 | 31.83865 | 26.70307 | 34948 ft | 508 kts | 142° |
| 2026-04-26 16:04 | 31.78477 | 26.75732 | 34961 ft | 509 kts | 142° |
| 2026-04-26 16:04 | 31.73106 | 26.81134 | 35231 ft | 509 kts | 143° |
| 2026-04-26 16:04 | 31.70433 | 26.83820 | 35092 ft | 507 kts | 142° |
| 2026-04-26 16:05 | 31.67766 | 26.86497 | 35027 ft | 507 kts | 142° |
| 2026-04-26 16:05 | 31.62406 | 26.91875 | 34988 ft | 506 kts | 143° |
| 2026-04-26 16:06 | 31.57031 | 26.97255 | 34979 ft | 506 kts | 143° |
| 2026-04-26 16:06 | 31.51683 | 27.02599 | 34980 ft | 506 kts | 143° |
| 2026-04-26 16:07 | 31.46334 | 27.07936 | 34985 ft | 507 kts | 143° |
| 2026-04-26 16:07 | 31.40957 | 27.13296 | 34987 ft | 505 kts | 143° |
| 2026-04-26 16:08 | 31.35578 | 27.18543 | 34986 ft | 504 kts | 147° |
| 2026-04-26 16:08 | 31.29826 | 27.23115 | 34990 ft | 499 kts | 155° |
| 2026-04-26 16:09 | 31.23630 | 27.26827 | 34987 ft | 494 kts | 161° |
| 2026-04-26 16:09 | 31.17384 | 27.30176 | 34986 ft | 493 kts | 161° |
| 2026-04-26 16:10 | 31.11151 | 27.33534 | 34987 ft | 494 kts | 161° |
| 2026-04-26 16:10 | 31.04927 | 27.36901 | 34996 ft | 494 kts | 161° |
| 2026-04-26 16:11 | 30.98725 | 27.40266 | 34994 ft | 494 kts | 160° |
| 2026-04-26 16:11 | 30.92677 | 27.44172 | 35000 ft | 500 kts | 153° |
| 2026-04-26 16:12 | 30.87002 | 27.48953 | 34994 ft | 506 kts | 147° |
| 2026-04-26 16:12 | 30.78775 | 27.56637 | 34993 ft | 507 kts | 146° |
| 2026-04-26 16:13 | 30.73274 | 27.61745 | 34988 ft | 507 kts | 147° |
| 2026-04-26 16:13 | 30.67735 | 27.66869 | 34779 ft | 506 kts | 147° |
| 2026-04-26 16:14 | 30.64969 | 27.69423 | 34908 ft | 507 kts | 147° |
| 2026-04-26 16:14 | 30.62188 | 27.71985 | 34973 ft | 508 kts | 148° |
| 2026-04-26 16:15 | 30.53875 | 27.79639 | 35016 ft | 509 kts | 148° |
| 2026-04-26 16:15 | 30.48306 | 27.84758 | 34993 ft | 509 kts | 148° |
| 2026-04-26 16:16 | 30.39986 | 27.92388 | 34960 ft | 511 kts | 148° |
| 2026-04-26 16:16 | 30.34431 | 27.97476 | 34960 ft | 510 kts | 148° |
| 2026-04-26 16:17 | 30.28876 | 28.02553 | 34959 ft | 511 kts | 148° |
| 2026-04-26 16:17 | 30.23287 | 28.07656 | 34979 ft | 511 kts | 148° |
| 2026-04-26 16:18 | 30.14922 | 28.15278 | 34940 ft | 510 kts | 149° |
| 2026-04-26 16:19 | 30.06560 | 28.22879 | 34954 ft | 511 kts | 149° |
| 2026-04-26 16:20 | 29.98153 | 28.30509 | 34945 ft | 511 kts | 149° |
| 2026-04-26 16:20 | 29.89821 | 28.38151 | 35160 ft | 515 kts | 146° |
| 2026-04-26 16:21 | 29.84653 | 28.43974 | 35022 ft | 522 kts | 138° |
| 2026-04-26 16:21 | 29.80116 | 28.50458 | 34972 ft | 524 kts | 133° |
| 2026-04-26 16:22 | 29.75718 | 28.57120 | 34968 ft | 524 kts | 132° |
| 2026-04-26 16:22 | 29.71292 | 28.63762 | 34974 ft | 524 kts | 133° |
| 2026-04-26 16:23 | 29.66843 | 28.70389 | 34986 ft | 523 kts | 134° |
| 2026-04-26 16:23 | 29.62373 | 28.77027 | 34981 ft | 522 kts | 134° |
| 2026-04-26 16:24 | 29.58031 | 28.83725 | 34977 ft | 529 kts | 126° |
| 2026-04-26 16:24 | 29.54519 | 28.91184 | 34991 ft | 532 kts | 122° |
| 2026-04-26 16:25 | 29.51133 | 28.98729 | 34989 ft | 532 kts | 122° |
| 2026-04-26 16:25 | 29.47682 | 29.06254 | 34990 ft | 533 kts | 122° |
| 2026-04-26 16:26 | 29.44807 | 29.12455 | 34992 ft | 532 kts | 123° |
| 2026-04-26 16:26 | 29.40717 | 29.21233 | 34996 ft | 532 kts | 123° |
| 2026-04-26 16:27 | 29.37211 | 29.28720 | 34989 ft | 538 kts | 123° |
| 2026-04-26 16:27 | 29.33659 | 29.36299 | 34986 ft | 546 kts | 123° |
| 2026-04-26 16:28 | 29.30051 | 29.43983 | 34990 ft | 549 kts | 123° |
| 2026-04-26 16:28 | 29.26448 | 29.51650 | 34988 ft | 549 kts | 123° |
| 2026-04-26 16:29 | 29.22814 | 29.59370 | 34992 ft | 549 kts | 123° |
| 2026-04-26 16:29 | 29.19173 | 29.67087 | 34985 ft | 549 kts | 124° |
| 2026-04-26 16:30 | 29.15543 | 29.74760 | 34997 ft | 549 kts | 124° |
| 2026-04-26 16:30 | 29.11900 | 29.82448 | 35007 ft | 549 kts | 124° |
| 2026-04-26 16:31 | 29.08241 | 29.90152 | 34998 ft | 549 kts | 124° |
| 2026-04-26 16:31 | 29.04598 | 29.97809 | 34991 ft | 550 kts | 124° |
| 2026-04-26 16:32 | 29.01530 | 30.04246 | 34992 ft | 550 kts | 124° |
| 2026-04-26 16:32 | 28.97464 | 30.12769 | 34989 ft | 549 kts | 124° |